Terminal Aerodrome Forecast
Issued by NWS Sterling, VA

Home | Current Version | Previous Version | Text Only | Print | Product List | Glossary On
Versions: 1 2 3 4 5 6 7 8 9 10 11 12 13 14 15
027
FTUS41 KLWX 251128
TAFCHO
TAF
KCHO 251128Z 2512/2612 00000KT P6SM SKC
     FM251600 05006KT P6SM FEW050
     FM260500 00000KT P6SM FEW040=

USA.gov is the U.S. government's official web portal to all federal, state and local government web resources and services.